createdAt,value
2022-08-22T00:00:00.071Z,58.97
2022-08-22T00:02:43.622Z,60.64
2022-08-22T00:02:43.675Z,60.59
2022-08-22T00:02:46.942Z,60.37
2022-08-22T00:02:56.363Z,60.10
2022-08-22T00:03:24.183Z,58.90
2022-08-22T00:06:32.482Z,58.90
2022-08-22T00:09:41.350Z,58.92
2022-08-22T00:12:47.705Z,58.94
2022-08-22T00:15:47.624Z,58.83
2022-08-22T00:18:52.955Z,58.71
2022-08-22T00:21:54.186Z,58.66
2022-08-22T00:24:56.714Z,58.58
2022-08-22T00:28:05.496Z,58.43
2022-08-22T00:31:10.270Z,58.33
2022-08-22T00:34:13.051Z,58.32
2022-08-22T00:37:12.996Z,58.25
2022-08-22T00:40:32.378Z,58.26
2022-08-22T00:44:24.300Z,58.25
2022-08-22T00:47:36.031Z,58.22
2022-08-22T00:51:18.732Z,58.18
2022-08-22T00:54:22.181Z,58.17
2022-08-22T00:57:29.805Z,58.18
2022-08-22T01:00:26.120Z,58.08
2022-08-22T01:04:05.045Z,58.17
2022-08-22T01:07:38.285Z,58.15
2022-08-22T01:11:02.914Z,58.17
2022-08-22T01:14:17.904Z,58.21
2022-08-22T01:18:02.099Z,58.17
2022-08-22T01:21:35.225Z,58.22
2022-08-22T01:25:28.296Z,58.19
2022-08-22T01:28:56.269Z,58.14
2022-08-22T01:32:37.143Z,58.13
2022-08-22T01:36:00.514Z,58.08
2022-08-22T01:39:16.858Z,57.96
2022-08-22T01:42:59.787Z,57.96
2022-08-22T01:46:23.882Z,57.96
2022-08-22T01:49:24.713Z,57.91
2022-08-22T01:52:22.134Z,57.89
2022-08-22T01:55:29.861Z,57.81
2022-08-22T01:58:28.414Z,57.87
2022-08-22T02:01:34.280Z,57.83
2022-08-22T02:04:43.878Z,57.84
2022-08-22T02:07:51.490Z,57.85
2022-08-22T02:10:58.847Z,57.75
2022-08-22T02:13:58.354Z,57.66
2022-08-22T02:16:57.597Z,57.69
2022-08-22T02:19:58.958Z,57.64
2022-08-22T02:23:01.904Z,57.66
2022-08-22T02:26:00.357Z,57.68
2022-08-22T02:29:03.336Z,57.65
2022-08-22T02:32:07.837Z,57.61
2022-08-22T02:35:13.523Z,57.63
2022-08-22T02:38:24.243Z,57.61
2022-08-22T02:41:28.348Z,57.49
2022-08-22T02:44:34.123Z,57.48
2022-08-22T02:47:37.173Z,57.31
2022-08-22T02:50:39.575Z,57.33
2022-08-22T02:53:47.487Z,57.31
2022-08-22T02:56:48.412Z,57.25
2022-08-22T03:00:31.945Z,57.23
2022-08-22T03:03:32.069Z,57.21
2022-08-22T03:06:42.462Z,57.13
2022-08-22T03:09:42.416Z,57.12
2022-08-22T03:12:46.440Z,57.11
2022-08-22T03:15:50.250Z,57.12
2022-08-22T03:18:57.459Z,57.03
2022-08-22T03:22:03.386Z,56.95
2022-08-22T03:25:10.521Z,56.89
2022-08-22T03:28:11.477Z,56.95
2022-08-22T03:31:19.544Z,56.83
2022-08-22T03:34:28.302Z,56.83
2022-08-22T03:37:30.005Z,56.77
2022-08-22T03:40:37.638Z,56.81
2022-08-22T03:44:00.372Z,56.88
2022-08-22T03:47:24.828Z,56.91
2022-08-22T03:51:07.412Z,56.92
2022-08-22T03:54:52.997Z,56.88
2022-08-22T03:58:27.567Z,56.86
2022-08-22T04:01:50.809Z,56.80
2022-08-22T04:05:28.772Z,56.78
2022-08-22T04:08:53.025Z,56.82
2022-08-22T04:12:28.210Z,56.89
2022-08-22T04:16:16.021Z,56.91
2022-08-22T04:19:42.209Z,56.91
2022-08-22T04:23:15.092Z,56.93
2022-08-22T04:26:17.285Z,56.93
2022-08-22T04:29:23.979Z,56.85
2022-08-22T04:32:28.187Z,56.90
2022-08-22T04:35:35.413Z,56.94
2022-08-22T04:38:37.416Z,56.94
2022-08-22T04:41:46.885Z,56.88
2022-08-22T04:44:50.292Z,56.83
2022-08-22T04:47:58.889Z,56.74
2022-08-22T04:51:05.263Z,56.70
2022-08-22T04:54:38.749Z,56.61
2022-08-22T04:57:56.503Z,56.63
2022-08-22T05:01:02.998Z,56.56
2022-08-22T05:04:07.386Z,56.53
2022-08-22T05:07:19.462Z,56.47
2022-08-22T05:10:34.714Z,56.37
2022-08-22T05:13:47.881Z,56.41
2022-08-22T05:17:03.444Z,56.43
2022-08-22T05:20:17.414Z,56.42
2022-08-22T05:23:25.627Z,56.45
2022-08-22T05:26:29.886Z,56.43
2022-08-22T05:29:37.618Z,56.42
2022-08-22T05:32:52.582Z,56.41
2022-08-22T05:35:57.849Z,56.45
2022-08-22T05:39:05.420Z,56.48
2022-08-22T05:42:10.293Z,56.50
2022-08-22T05:45:12.355Z,56.49
2022-08-22T05:48:16.209Z,56.57
2022-08-22T05:51:23.306Z,56.58
2022-08-22T05:54:47.471Z,56.63
2022-08-22T05:57:52.069Z,56.62
2022-08-22T06:00:56.727Z,56.64
2022-08-22T06:04:02.716Z,56.69
2022-08-22T06:07:19.624Z,56.72
2022-08-22T06:10:30.236Z,56.79
2022-08-22T06:14:02.354Z,56.82
2022-08-22T06:18:03.760Z,56.87
2022-08-22T06:21:16.209Z,56.95
2022-08-22T06:25:02.377Z,57.01
2022-08-22T06:29:04.610Z,57.09
2022-08-22T06:32:58.184Z,57.20
2022-08-22T06:36:04.799Z,57.28
2022-08-22T06:39:27.555Z,57.38
2022-08-22T06:42:41.545Z,57.48
2022-08-22T06:45:56.946Z,57.65
2022-08-22T06:49:14.890Z,57.71
2022-08-22T06:52:22.511Z,57.67
2022-08-22T06:55:28.329Z,57.80
2022-08-22T06:58:34.192Z,57.84
2022-08-22T07:01:52.800Z,58.00
2022-08-22T07:05:16.525Z,58.11
2022-08-22T07:09:37.804Z,58.08
2022-08-22T07:18:07.532Z,58.03
2022-08-22T07:25:38.295Z,58.03
2022-08-22T07:29:15.793Z,58.04
2022-08-22T07:32:46.323Z,58.11
2022-08-22T07:36:05.739Z,58.06
2022-08-22T07:39:44.289Z,58.04
2022-08-22T07:43:00.371Z,58.07
2022-08-22T07:46:09.379Z,58.17
2022-08-22T07:49:27.502Z,58.25
2022-08-22T07:52:39.621Z,58.27
2022-08-22T07:55:49.504Z,58.29
2022-08-22T07:59:08.003Z,58.31
2022-08-22T08:02:28.802Z,58.33
2022-08-22T08:05:39.909Z,58.34
2022-08-22T08:08:50.464Z,58.36
2022-08-22T08:11:57.555Z,58.38
2022-08-22T08:15:14.682Z,58.41
2022-08-22T08:18:30.476Z,58.43
2022-08-22T08:21:48.581Z,58.43
2022-08-22T08:24:56.246Z,58.44
2022-08-22T08:28:21.038Z,58.49
2022-08-22T08:31:44.715Z,58.54
2022-08-22T08:34:55.429Z,58.61
2022-08-22T08:38:04.193Z,58.66
2022-08-22T08:41:39.244Z,58.68
2022-08-22T08:45:18.641Z,58.69
2022-08-22T08:48:56.263Z,58.72
2022-08-22T08:52:33.618Z,58.74
2022-08-22T08:55:53.665Z,58.77
2022-08-22T08:59:13.754Z,58.84
2022-08-22T09:02:55.350Z,58.89
2022-08-22T09:06:13.363Z,58.93
2022-08-22T09:09:54.180Z,58.98
2022-08-22T09:13:34.603Z,59.01
2022-08-22T09:17:18.612Z,59.00
2022-08-22T09:20:49.665Z,59.02
2022-08-22T09:24:38.405Z,59.03
2022-08-22T09:27:51.038Z,59.05
2022-08-22T09:31:51.955Z,59.06
2022-08-22T09:35:11.578Z,59.12
2022-08-22T09:38:51.097Z,59.15
2022-08-22T09:42:09.372Z,59.12
2022-08-22T09:45:53.661Z,59.14
2022-08-22T09:49:16.450Z,59.13
2022-08-22T09:52:35.677Z,59.16
2022-08-22T09:55:53.773Z,59.15
2022-08-22T09:59:13.778Z,59.17
2022-08-22T10:02:43.606Z,59.20
2022-08-22T10:06:03.450Z,59.20
2022-08-22T10:09:34.641Z,59.21
2022-08-22T10:12:49.210Z,59.23
2022-08-22T10:16:09.152Z,59.23
2022-08-22T10:19:27.642Z,59.27
2022-08-22T10:22:48.529Z,59.28
2022-08-22T10:26:03.330Z,59.28
2022-08-22T10:29:35.645Z,59.32
2022-08-22T10:32:49.621Z,59.31
2022-08-22T10:36:13.701Z,59.39
2022-08-22T10:39:29.604Z,59.39
2022-08-22T10:42:43.138Z,59.39
2022-08-22T10:45:57.608Z,59.38
2022-08-22T10:49:15.393Z,59.38
2022-08-22T10:52:35.664Z,59.38
2022-08-22T10:55:56.791Z,59.40
2022-08-22T10:59:19.736Z,59.44
2022-08-22T11:06:21.620Z,59.64
2022-08-22T11:09:36.386Z,59.64
2022-08-22T11:12:44.736Z,59.62
2022-08-22T11:16:11.959Z,59.93
2022-08-22T11:19:40.626Z,59.96
2022-08-22T11:23:21.362Z,60.05
2022-08-22T11:27:01.249Z,60.20
2022-08-22T11:30:20.200Z,60.29
2022-08-22T11:33:47.097Z,60.28
2022-08-22T11:36:59.523Z,60.30
2022-08-22T11:40:16.394Z,60.32
2022-08-22T11:43:36.765Z,60.35
2022-08-22T11:46:44.954Z,60.37
2022-08-22T11:50:10.743Z,60.39
2022-08-22T11:53:33.632Z,60.40
2022-08-22T11:56:55.632Z,60.47
2022-08-22T12:00:36.719Z,60.57
2022-08-22T12:04:14.249Z,60.62
2022-08-22T12:07:20.182Z,60.68
2022-08-22T12:10:40.686Z,60.80
2022-08-22T12:14:05.901Z,60.90
2022-08-22T12:17:55.027Z,60.85
2022-08-22T12:22:00.236Z,60.80
2022-08-22T12:25:17.074Z,60.82
2022-08-22T12:28:38.672Z,60.97
2022-08-22T12:32:22.792Z,61.06
2022-08-22T12:35:51.677Z,61.05
2022-08-22T12:39:59.689Z,61.17
2022-08-22T12:43:27.314Z,61.12
2022-08-22T12:46:53.549Z,61.24
2022-08-22T12:50:21.691Z,61.16
2022-08-22T12:53:52.374Z,61.17
2022-08-22T12:59:10.627Z,61.08
2022-08-22T13:01:44.773Z,60.93
2022-08-22T13:04:54.272Z,60.87
2022-08-22T13:08:19.787Z,60.84
2022-08-22T13:11:40.519Z,60.81
2022-08-22T13:14:56.295Z,60.77
2022-08-22T13:18:25.288Z,60.71
2022-08-22T13:21:39.470Z,60.74
2022-08-22T13:24:57.690Z,60.67
2022-08-22T13:28:20.670Z,60.59
2022-08-22T13:31:34.158Z,60.67
2022-08-22T13:34:47.727Z,60.75
2022-08-22T13:38:12.299Z,60.95
2022-08-22T13:41:29.960Z,61.20
2022-08-22T13:44:40.700Z,61.47
2022-08-22T13:48:11.394Z,61.72
2022-08-22T13:51:22.523Z,66.69
2022-08-22T13:54:47.718Z,64.10
2022-08-22T13:58:01.110Z,58.20
2022-08-22T14:01:28.749Z,55.46
2022-08-22T14:04:40.818Z,56.14
2022-08-22T14:07:55.968Z,56.68
2022-08-22T14:11:15.704Z,57.53
2022-08-22T14:14:35.021Z,58.37
2022-08-22T14:17:42.912Z,59.15
2022-08-22T14:21:01.766Z,59.62
2022-08-22T14:24:14.715Z,60.10
2022-08-22T14:27:17.114Z,60.55
2022-08-22T14:30:25.411Z,61.04
2022-08-22T14:33:34.575Z,65.47
2022-08-22T14:36:48.326Z,63.32
2022-08-22T14:39:48.987Z,57.19
2022-08-22T14:42:56.426Z,55.01
2022-08-22T14:46:06.731Z,55.76
2022-08-22T14:49:39.780Z,56.42
2022-08-22T14:53:00.882Z,57.55
2022-08-22T14:56:19.794Z,58.05
2022-08-22T14:59:45.759Z,58.94
2022-08-22T15:02:49.676Z,59.41
2022-08-22T15:06:10.978Z,60.03
2022-08-22T15:09:23.750Z,60.57
2022-08-22T15:12:32.422Z,61.12
2022-08-22T15:15:53.604Z,67.04
2022-08-22T15:19:06.733Z,63.51
2022-08-22T15:22:16.020Z,57.24
2022-08-22T15:25:23.908Z,54.75
2022-08-22T15:28:29.764Z,55.17
2022-08-22T15:31:55.200Z,55.72
2022-08-22T15:35:01.765Z,56.55
2022-08-22T15:38:30.564Z,57.05
2022-08-22T15:41:46.773Z,57.42
2022-08-22T15:44:52.440Z,57.88
2022-08-22T15:47:57.515Z,58.32
2022-08-22T15:51:12.490Z,58.59
2022-08-22T15:54:27.030Z,58.86
2022-08-22T15:57:41.827Z,59.20
2022-08-22T16:01:19.958Z,59.49
2022-08-22T16:04:48.045Z,59.53
2022-08-22T16:07:59.788Z,59.81
2022-08-22T16:11:34.711Z,60.00
2022-08-22T16:14:56.366Z,60.11
2022-08-22T16:18:08.699Z,60.38
2022-08-22T16:21:21.811Z,60.60
2022-08-22T16:25:03.276Z,60.63
2022-08-22T16:28:56.853Z,60.62
2022-08-22T16:32:15.184Z,60.68
2022-08-22T16:35:18.794Z,60.83
2022-08-22T16:38:56.799Z,60.93
2022-08-22T16:43:01.879Z,60.94
2022-08-22T16:46:43.123Z,60.91
2022-08-22T16:50:17.588Z,60.96
2022-08-22T16:54:17.173Z,61.09
2022-08-22T16:58:04.915Z,61.02
2022-08-22T17:01:29.310Z,61.15
2022-08-22T17:04:44.369Z,61.26
2022-08-22T17:08:05.377Z,61.42
2022-08-22T17:11:20.635Z,61.49
2022-08-22T17:14:44.830Z,61.45
2022-08-22T17:17:59.873Z,61.49
2022-08-22T17:21:18.699Z,61.46
2022-08-22T17:24:32.185Z,61.45
2022-08-22T17:27:58.917Z,61.43
2022-08-22T17:31:21.133Z,61.44
2022-08-22T17:34:35.971Z,61.51
2022-08-22T17:37:55.739Z,61.71
2022-08-22T17:41:14.855Z,61.91
2022-08-22T17:44:25.848Z,69.67
2022-08-22T17:47:33.403Z,66.69
2022-08-22T17:50:42.427Z,59.24
2022-08-22T17:53:57.881Z,55.89
2022-08-22T17:57:12.816Z,56.13
2022-08-22T18:00:36.892Z,56.65
2022-08-22T18:03:58.005Z,56.36
2022-08-22T18:07:39.988Z,56.45
2022-08-22T18:10:52.056Z,56.82
2022-08-22T18:14:15.916Z,57.59
2022-08-22T18:17:36.867Z,57.69
2022-08-22T18:21:05.885Z,58.16
2022-08-22T18:24:36.185Z,58.80
2022-08-22T18:27:42.797Z,59.09
2022-08-22T18:31:09.909Z,59.46
2022-08-22T18:34:33.911Z,59.60
2022-08-22T18:37:58.905Z,59.75
2022-08-22T18:41:26.939Z,59.91
2022-08-22T18:44:40.864Z,59.32
2022-08-22T18:47:48.597Z,59.19
2022-08-22T18:50:56.090Z,59.20
2022-08-22T18:54:26.570Z,59.19
2022-08-22T18:58:12.921Z,59.25
2022-08-22T19:01:56.940Z,59.43
2022-08-22T19:05:49.914Z,59.56
2022-08-22T19:09:39.853Z,59.60
2022-08-22T19:17:28.997Z,59.95
2022-08-22T19:21:00.025Z,59.89
2022-08-22T19:24:01.207Z,59.99
2022-08-22T19:27:36.016Z,60.09
2022-08-22T19:30:47.361Z,59.99
2022-08-22T19:34:47.086Z,60.28
2022-08-22T19:38:04.998Z,60.36
2022-08-22T19:41:09.022Z,60.54
2022-08-22T19:44:33.193Z,60.73
2022-08-22T19:47:40.762Z,60.84
2022-08-22T19:50:55.825Z,60.84
2022-08-22T19:54:28.057Z,60.86
2022-08-22T19:57:46.370Z,60.83
2022-08-22T20:00:53.979Z,60.79
2022-08-22T20:04:03.090Z,60.86
2022-08-22T20:07:14.664Z,61.19
2022-08-22T20:10:36.519Z,61.70
2022-08-22T20:13:45.040Z,71.35
2022-08-22T20:17:08.561Z,74.41
2022-08-22T20:20:35.403Z,60.52
2022-08-22T20:23:47.573Z,55.76
2022-08-22T20:27:23.061Z,55.54
2022-08-22T20:30:33.088Z,55.96
2022-08-22T20:33:59.915Z,56.29
2022-08-22T20:37:39.896Z,56.58
2022-08-22T20:40:57.225Z,56.90
2022-08-22T20:44:06.747Z,57.36
2022-08-22T20:47:21.373Z,57.54
2022-08-22T20:50:29.025Z,57.84
2022-08-22T20:53:41.667Z,58.17
2022-08-22T20:56:53.262Z,58.43
2022-08-22T21:00:07.197Z,58.69
2022-08-22T21:03:13.394Z,58.94
2022-08-22T21:06:29.071Z,59.14
2022-08-22T21:09:55.186Z,59.30
2022-08-22T21:13:16.783Z,59.42
2022-08-22T21:16:18.056Z,59.57
2022-08-22T21:19:34.087Z,59.83
2022-08-22T21:22:47.070Z,59.87
2022-08-22T21:26:05.030Z,60.04
2022-08-22T21:29:09.868Z,60.12
2022-08-22T21:32:29.195Z,60.23
2022-08-22T21:35:30.959Z,60.34
2022-08-22T21:38:30.792Z,60.42
2022-08-22T21:41:39.415Z,60.51
2022-08-22T21:44:44.480Z,60.55
2022-08-22T21:47:58.753Z,60.61
2022-08-22T21:50:58.315Z,60.64
2022-08-22T21:54:16.119Z,60.74
2022-08-22T21:57:34.924Z,60.73
2022-08-22T22:01:01.376Z,60.77
2022-08-22T22:04:04.218Z,60.84
2022-08-22T22:07:04.925Z,60.89
2022-08-22T22:10:08.398Z,60.91
2022-08-22T22:13:09.217Z,60.96
2022-08-22T22:16:13.227Z,60.95
2022-08-22T22:19:14.711Z,60.96
2022-08-22T22:22:13.932Z,61.03
2022-08-22T22:25:40.263Z,61.02
2022-08-22T22:28:43.973Z,61.04
2022-08-22T22:31:50.901Z,61.06
2022-08-22T22:34:47.209Z,61.07
2022-08-22T22:37:43.990Z,61.10
2022-08-22T22:40:43.184Z,61.09
2022-08-22T22:43:40.106Z,61.09
2022-08-22T22:46:36.018Z,61.10
2022-08-22T22:49:34.128Z,61.10
2022-08-22T22:52:31.428Z,61.11
2022-08-22T22:55:34.730Z,61.13
2022-08-22T22:58:33.749Z,61.15
2022-08-22T23:01:34.888Z,61.14
2022-08-22T23:04:30.483Z,61.14
2022-08-22T23:07:27.584Z,61.13
2022-08-22T23:10:27.339Z,61.13
2022-08-22T23:13:22.192Z,61.16
2022-08-22T23:16:18.639Z,61.20
2022-08-22T23:19:17.322Z,61.16
2022-08-22T23:22:15.019Z,61.15
2022-08-22T23:25:16.271Z,61.13
2022-08-22T23:28:12.828Z,61.13
2022-08-22T23:31:26.324Z,61.11
2022-08-22T23:34:22.709Z,61.09
2022-08-22T23:37:22.984Z,61.09
2022-08-22T23:40:18.231Z,61.11
2022-08-22T23:43:12.341Z,61.12
2022-08-22T23:46:07.997Z,61.13
2022-08-22T23:49:03.253Z,61.13
2022-08-22T23:51:58.346Z,61.11
2022-08-22T23:54:55.533Z,61.09
2022-08-22T23:57:50.130Z,61.10
